sensor_id;sensor_type;location;lat;lon;timestamp;P1;durP1;ratioP1;P2;durP2;ratioP2
53775;SDS011;44276;49.534;6.378;2022-07-29T00:01:09;8.93;;;2.67;;
53775;SDS011;44276;49.534;6.378;2022-07-29T00:03:44;3.85;;;2.40;;
53775;SDS011;44276;49.534;6.378;2022-07-29T00:06:14;7.20;;;2.35;;
53775;SDS011;44276;49.534;6.378;2022-07-29T00:08:43;3.78;;;2.20;;
53775;SDS011;44276;49.534;6.378;2022-07-29T00:11:11;6.13;;;2.20;;
53775;SDS011;44276;49.534;6.378;2022-07-29T00:13:39;2.65;;;1.77;;
53775;SDS011;44276;49.534;6.378;2022-07-29T00:16:11;6.13;;;2.60;;
53775;SDS011;44276;49.534;6.378;2022-07-29T00:18:39;4.90;;;2.70;;
53775;SDS011;44276;49.534;6.378;2022-07-29T00:21:08;4.53;;;2.38;;
53775;SDS011;44276;49.534;6.378;2022-07-29T00:23:37;5.00;;;2.45;;
53775;SDS011;44276;49.534;6.378;2022-07-29T00:26:06;3.75;;;2.63;;
53775;SDS011;44276;49.534;6.378;2022-07-29T00:28:34;4.60;;;1.58;;
53775;SDS011;44276;49.534;6.378;2022-07-29T00:31:02;3.45;;;1.77;;
53775;SDS011;44276;49.534;6.378;2022-07-29T00:33:30;3.42;;;2.60;;
53775;SDS011;44276;49.534;6.378;2022-07-29T00:35:58;6.63;;;2.70;;
53775;SDS011;44276;49.534;6.378;2022-07-29T00:38:26;4.30;;;1.90;;
53775;SDS011;44276;49.534;6.378;2022-07-29T00:40:55;6.35;;;1.92;;
53775;SDS011;44276;49.534;6.378;2022-07-29T00:43:23;2.97;;;2.05;;
53775;SDS011;44276;49.534;6.378;2022-07-29T00:45:51;6.05;;;2.53;;
53775;SDS011;44276;49.534;6.378;2022-07-29T00:48:20;4.35;;;2.45;;
53775;SDS011;44276;49.534;6.378;2022-07-29T00:50:48;5.00;;;2.30;;
53775;SDS011;44276;49.534;6.378;2022-07-29T00:53:17;4.10;;;2.30;;
53775;SDS011;44276;49.534;6.378;2022-07-29T00:55:47;4.30;;;1.83;;
53775;SDS011;44276;49.534;6.378;2022-07-29T00:58:19;4.97;;;2.17;;
53775;SDS011;44276;49.534;6.378;2022-07-29T01:00:47;5.97;;;2.78;;
53775;SDS011;44276;49.534;6.378;2022-07-29T01:03:15;5.97;;;2.88;;
53775;SDS011;44276;49.534;6.378;2022-07-29T01:05:44;4.22;;;2.55;;
53775;SDS011;44276;49.534;6.378;2022-07-29T01:08:17;2.47;;;2.03;;
53775;SDS011;44276;49.534;6.378;2022-07-29T01:10:47;8.77;;;2.53;;
53775;SDS011;44276;49.534;6.378;2022-07-29T01:13:19;4.15;;;2.42;;
53775;SDS011;44276;49.534;6.378;2022-07-29T01:15:49;5.25;;;2.17;;
53775;SDS011;44276;49.534;6.378;2022-07-29T01:18:28;4.32;;;2.85;;
53775;SDS011;44276;49.534;6.378;2022-07-29T01:21:13;5.20;;;2.75;;
53775;SDS011;44276;49.534;6.378;2022-07-29T01:24:14;5.50;;;3.45;;
53775;SDS011;44276;49.534;6.378;2022-07-29T01:27:03;3.45;;;2.33;;
53775;SDS011;44276;49.534;6.378;2022-07-29T01:29:56;3.33;;;2.70;;
53775;SDS011;44276;49.534;6.378;2022-07-29T01:32:31;9.48;;;3.78;;
53775;SDS011;44276;49.534;6.378;2022-07-29T01:35:05;8.32;;;2.97;;
53775;SDS011;44276;49.534;6.378;2022-07-29T01:37:43;5.28;;;3.90;;
53775;SDS011;44276;49.534;6.378;2022-07-29T01:40:18;3.80;;;2.60;;
53775;SDS011;44276;49.534;6.378;2022-07-29T01:42:51;5.90;;;2.80;;
53775;SDS011;44276;49.534;6.378;2022-07-29T01:45:25;3.53;;;2.80;;
53775;SDS011;44276;49.534;6.378;2022-07-29T01:48:05;7.63;;;3.05;;
53775;SDS011;44276;49.534;6.378;2022-07-29T01:50:45;4.03;;;3.25;;
53775;SDS011;44276;49.534;6.378;2022-07-29T01:53:21;4.75;;;2.38;;
53775;SDS011;44276;49.534;6.378;2022-07-29T01:56:03;6.57;;;3.00;;
53775;SDS011;44276;49.534;6.378;2022-07-29T01:58:33;6.30;;;3.13;;
53775;SDS011;44276;49.534;6.378;2022-07-29T02:01:07;4.05;;;2.67;;
53775;SDS011;44276;49.534;6.378;2022-07-29T02:03:38;4.82;;;3.38;;
53775;SDS011;44276;49.534;6.378;2022-07-29T02:06:11;5.80;;;2.83;;
53775;SDS011;44276;49.534;6.378;2022-07-29T02:08:46;5.43;;;2.55;;
53775;SDS011;44276;49.534;6.378;2022-07-29T02:11:17;4.53;;;2.80;;
53775;SDS011;44276;49.534;6.378;2022-07-29T02:13:45;6.03;;;2.80;;
53775;SDS011;44276;49.534;6.378;2022-07-29T02:16:17;5.28;;;2.78;;
53775;SDS011;44276;49.534;6.378;2022-07-29T02:18:49;3.70;;;2.53;;
53775;SDS011;44276;49.534;6.378;2022-07-29T02:21:23;6.65;;;3.33;;
53775;SDS011;44276;49.534;6.378;2022-07-29T02:23:54;3.15;;;2.83;;
53775;SDS011;44276;49.534;6.378;2022-07-29T02:26:26;8.75;;;3.58;;
53775;SDS011;44276;49.534;6.378;2022-07-29T02:28:56;2.85;;;2.35;;
53775;SDS011;44276;49.534;6.378;2022-07-29T02:31:30;10.02;;;3.47;;
53775;SDS011;44276;49.534;6.378;2022-07-29T02:34:03;2.90;;;2.35;;
53775;SDS011;44276;49.534;6.378;2022-07-29T02:36:36;7.47;;;4.22;;
53775;SDS011;44276;49.534;6.378;2022-07-29T02:39:06;3.60;;;3.22;;
53775;SDS011;44276;49.534;6.378;2022-07-29T02:41:40;4.93;;;2.50;;
53775;SDS011;44276;49.534;6.378;2022-07-29T02:44:12;4.13;;;2.83;;
53775;SDS011;44276;49.534;6.378;2022-07-29T02:46:46;7.40;;;2.90;;
53775;SDS011;44276;49.534;6.378;2022-07-29T02:49:22;6.32;;;3.10;;
53775;SDS011;44276;49.534;6.378;2022-07-29T02:52:02;4.03;;;2.70;;
53775;SDS011;44276;49.534;6.378;2022-07-29T02:54:37;5.00;;;2.83;;
53775;SDS011;44276;49.534;6.378;2022-07-29T02:57:14;5.30;;;2.83;;
53775;SDS011;44276;49.534;6.378;2022-07-29T02:59:51;9.80;;;2.70;;
53775;SDS011;44276;49.534;6.378;2022-07-29T03:02:26;5.13;;;2.70;;
53775;SDS011;44276;49.534;6.378;2022-07-29T03:04:57;5.47;;;3.05;;
53775;SDS011;44276;49.534;6.378;2022-07-29T03:07:27;2.97;;;2.65;;
53775;SDS011;44276;49.534;6.378;2022-07-29T03:09:56;4.35;;;2.97;;
53775;SDS011;44276;49.534;6.378;2022-07-29T03:12:26;4.10;;;2.83;;
53775;SDS011;44276;49.534;6.378;2022-07-29T03:14:56;3.67;;;2.72;;
53775;SDS011;44276;49.534;6.378;2022-07-29T03:17:29;6.38;;;3.88;;
53775;SDS011;44276;49.534;6.378;2022-07-29T03:19:59;2.95;;;2.53;;
53775;SDS011;44276;49.534;6.378;2022-07-29T03:22:28;4.40;;;2.85;;
53775;SDS011;44276;49.534;6.378;2022-07-29T03:24:57;5.72;;;3.17;;
53775;SDS011;44276;49.534;6.378;2022-07-29T03:27:35;5.70;;;2.60;;
53775;SDS011;44276;49.534;6.378;2022-07-29T03:30:03;5.13;;;3.03;;
53775;SDS011;44276;49.534;6.378;2022-07-29T03:32:35;5.90;;;2.88;;
53775;SDS011;44276;49.534;6.378;2022-07-29T03:35:05;5.78;;;2.70;;
53775;SDS011;44276;49.534;6.378;2022-07-29T03:37:35;6.82;;;4.18;;
53775;SDS011;44276;49.534;6.378;2022-07-29T03:40:05;5.20;;;2.90;;
53775;SDS011;44276;49.534;6.378;2022-07-29T03:42:38;5.13;;;2.88;;
53775;SDS011;44276;49.534;6.378;2022-07-29T03:45:10;5.90;;;2.95;;
53775;SDS011;44276;49.534;6.378;2022-07-29T03:47:45;4.95;;;2.55;;
53775;SDS011;44276;49.534;6.378;2022-07-29T03:50:25;6.43;;;3.60;;
53775;SDS011;44276;49.534;6.378;2022-07-29T03:52:55;3.25;;;2.83;;
53775;SDS011;44276;49.534;6.378;2022-07-29T03:55:24;3.20;;;2.70;;
53775;SDS011;44276;49.534;6.378;2022-07-29T03:57:55;5.05;;;2.92;;
53775;SDS011;44276;49.534;6.378;2022-07-29T04:00:25;4.50;;;2.97;;
53775;SDS011;44276;49.534;6.378;2022-07-29T04:02:56;9.75;;;4.90;;
53775;SDS011;44276;49.534;6.378;2022-07-29T04:05:25;5.65;;;2.90;;
53775;SDS011;44276;49.534;6.378;2022-07-29T04:07:53;4.47;;;3.80;;
53775;SDS011;44276;49.534;6.378;2022-07-29T04:10:22;7.15;;;3.75;;
53775;SDS011;44276;49.534;6.378;2022-07-29T04:12:57;4.25;;;3.40;;
53775;SDS011;44276;49.534;6.378;2022-07-29T04:15:25;5.05;;;3.50;;
53775;SDS011;44276;49.534;6.378;2022-07-29T04:17:58;5.72;;;3.00;;
53775;SDS011;44276;49.534;6.378;2022-07-29T04:20:26;3.42;;;3.03;;
53775;SDS011;44276;49.534;6.378;2022-07-29T04:22:55;8.68;;;3.30;;
53775;SDS011;44276;49.534;6.378;2022-07-29T04:25:23;4.07;;;3.05;;
53775;SDS011;44276;49.534;6.378;2022-07-29T04:27:51;5.97;;;3.20;;
53775;SDS011;44276;49.534;6.378;2022-07-29T04:30:29;3.92;;;3.05;;
53775;SDS011;44276;49.534;6.378;2022-07-29T04:33:01;8.07;;;3.42;;
53775;SDS011;44276;49.534;6.378;2022-07-29T04:35:34;9.90;;;3.13;;
53775;SDS011;44276;49.534;6.378;2022-07-29T04:38:15;3.67;;;3.33;;
53775;SDS011;44276;49.534;6.378;2022-07-29T04:40:43;7.20;;;2.92;;
53775;SDS011;44276;49.534;6.378;2022-07-29T04:43:15;5.88;;;2.42;;
53775;SDS011;44276;49.534;6.378;2022-07-29T04:45:48;4.57;;;2.78;;
53775;SDS011;44276;49.534;6.378;2022-07-29T04:48:18;7.35;;;2.90;;
53775;SDS011;44276;49.534;6.378;2022-07-29T04:50:53;6.30;;;4.10;;
53775;SDS011;44276;49.534;6.378;2022-07-29T04:53:22;5.88;;;2.92;;
53775;SDS011;44276;49.534;6.378;2022-07-29T04:55:51;5.88;;;3.03;;
53775;SDS011;44276;49.534;6.378;2022-07-29T04:58:19;8.77;;;3.63;;
53775;SDS011;44276;49.534;6.378;2022-07-29T05:00:49;3.70;;;3.00;;
53775;SDS011;44276;49.534;6.378;2022-07-29T05:03:19;7.28;;;2.63;;
53775;SDS011;44276;49.534;6.378;2022-07-29T05:05:47;8.30;;;3.75;;
53775;SDS011;44276;49.534;6.378;2022-07-29T05:08:15;4.20;;;3.25;;
53775;SDS011;44276;49.534;6.378;2022-07-29T05:10:43;3.63;;;2.78;;
53775;SDS011;44276;49.534;6.378;2022-07-29T05:13:12;4.70;;;2.63;;
53775;SDS011;44276;49.534;6.378;2022-07-29T05:15:40;6.55;;;2.42;;
53775;SDS011;44276;49.534;6.378;2022-07-29T05:18:08;5.40;;;2.80;;
53775;SDS011;44276;49.534;6.378;2022-07-29T05:20:38;3.95;;;2.72;;
53775;SDS011;44276;49.534;6.378;2022-07-29T05:23:06;5.32;;;2.20;;
53775;SDS011;44276;49.534;6.378;2022-07-29T05:25:35;2.13;;;1.70;;
53775;SDS011;44276;49.534;6.378;2022-07-29T05:28:10;4.13;;;1.98;;
53775;SDS011;44276;49.534;6.378;2022-07-29T05:30:38;7.43;;;2.38;;
53775;SDS011;44276;49.534;6.378;2022-07-29T05:33:06;6.22;;;2.35;;
53775;SDS011;44276;49.534;6.378;2022-07-29T05:35:56;4.47;;;2.25;;
53775;SDS011;44276;49.534;6.378;2022-07-29T05:38:26;3.08;;;1.55;;
53775;SDS011;44276;49.534;6.378;2022-07-29T05:40:56;5.05;;;2.03;;
53775;SDS011;44276;49.534;6.378;2022-07-29T05:43:26;3.30;;;1.95;;
53775;SDS011;44276;49.534;6.378;2022-07-29T05:45:55;3.78;;;2.22;;
53775;SDS011;44276;49.534;6.378;2022-07-29T05:48:24;8.23;;;1.77;;
53775;SDS011;44276;49.534;6.378;2022-07-29T05:50:52;6.88;;;1.45;;
53775;SDS011;44276;49.534;6.378;2022-07-29T05:53:23;7.40;;;1.58;;
53775;SDS011;44276;49.534;6.378;2022-07-29T05:55:51;4.93;;;1.83;;
53775;SDS011;44276;49.534;6.378;2022-07-29T05:58:19;6.95;;;1.98;;
53775;SDS011;44276;49.534;6.378;2022-07-29T06:00:48;3.72;;;1.95;;
53775;SDS011;44276;49.534;6.378;2022-07-29T06:03:16;4.90;;;2.00;;
53775;SDS011;44276;49.534;6.378;2022-07-29T06:05:44;4.05;;;2.38;;
53775;SDS011;44276;49.534;6.378;2022-07-29T06:08:12;8.50;;;1.67;;
53775;SDS011;44276;49.534;6.378;2022-07-29T06:10:41;3.15;;;1.27;;
53775;SDS011;44276;49.534;6.378;2022-07-29T06:13:11;9.40;;;1.83;;
53775;SDS011;44276;49.534;6.378;2022-07-29T06:15:42;4.55;;;1.58;;
53775;SDS011;44276;49.534;6.378;2022-07-29T06:18:11;13.45;;;2.65;;
53775;SDS011;44276;49.534;6.378;2022-07-29T06:20:40;7.22;;;1.80;;
53775;SDS011;44276;49.534;6.378;2022-07-29T06:23:08;7.00;;;2.38;;
53775;SDS011;44276;49.534;6.378;2022-07-29T06:25:36;4.53;;;1.63;;
53775;SDS011;44276;49.534;6.378;2022-07-29T06:28:06;9.63;;;2.40;;
53775;SDS011;44276;49.534;6.378;2022-07-29T06:30:35;16.90;;;2.55;;
53775;SDS011;44276;49.534;6.378;2022-07-29T06:33:03;9.88;;;2.20;;
53775;SDS011;44276;49.534;6.378;2022-07-29T06:35:32;9.18;;;1.75;;
53775;SDS011;44276;49.534;6.378;2022-07-29T06:38:07;11.40;;;2.20;;
53775;SDS011;44276;49.534;6.378;2022-07-29T06:40:56;9.82;;;2.10;;
53775;SDS011;44276;49.534;6.378;2022-07-29T06:43:29;14.68;;;2.97;;
53775;SDS011;44276;49.534;6.378;2022-07-29T06:46:00;4.82;;;1.80;;
53775;SDS011;44276;49.534;6.378;2022-07-29T06:48:31;9.45;;;2.25;;
53775;SDS011;44276;49.534;6.378;2022-07-29T06:51:02;13.77;;;2.45;;
53775;SDS011;44276;49.534;6.378;2022-07-29T06:53:31;7.28;;;2.10;;
53775;SDS011;44276;49.534;6.378;2022-07-29T06:56:00;8.07;;;1.98;;
53775;SDS011;44276;49.534;6.378;2022-07-29T06:58:31;15.32;;;2.63;;
53775;SDS011;44276;49.534;6.378;2022-07-29T07:01:01;3.88;;;1.83;;
53775;SDS011;44276;49.534;6.378;2022-07-29T07:03:31;6.47;;;1.65;;
53775;SDS011;44276;49.534;6.378;2022-07-29T07:06:00;4.05;;;1.55;;
53775;SDS011;44276;49.534;6.378;2022-07-29T07:08:28;6.43;;;2.05;;
53775;SDS011;44276;49.534;6.378;2022-07-29T07:10:56;5.40;;;1.92;;
53775;SDS011;44276;49.534;6.378;2022-07-29T07:13:26;4.30;;;1.27;;
53775;SDS011;44276;49.534;6.378;2022-07-29T07:15:55;7.00;;;2.17;;
53775;SDS011;44276;49.534;6.378;2022-07-29T07:18:23;5.60;;;1.80;;
53775;SDS011;44276;49.534;6.378;2022-07-29T07:20:51;5.35;;;1.88;;
53775;SDS011;44276;49.534;6.378;2022-07-29T07:23:20;6.45;;;1.23;;
53775;SDS011;44276;49.534;6.378;2022-07-29T07:25:48;7.15;;;1.90;;
53775;SDS011;44276;49.534;6.378;2022-07-29T07:28:16;5.72;;;1.55;;
53775;SDS011;44276;49.534;6.378;2022-07-29T07:30:50;20.10;;;2.55;;
53775;SDS011;44276;49.534;6.378;2022-07-29T07:33:20;3.30;;;1.55;;
53775;SDS011;44276;49.534;6.378;2022-07-29T07:35:48;7.13;;;1.40;;
53775;SDS011;44276;49.534;6.378;2022-07-29T07:38:16;3.88;;;1.05;;
53775;SDS011;44276;49.534;6.378;2022-07-29T07:40:44;4.55;;;1.70;;
53775;SDS011;44276;49.534;6.378;2022-07-29T07:43:13;4.45;;;1.75;;
53775;SDS011;44276;49.534;6.378;2022-07-29T07:45:41;6.93;;;1.73;;
53775;SDS011;44276;49.534;6.378;2022-07-29T07:48:09;8.00;;;2.35;;
53775;SDS011;44276;49.534;6.378;2022-07-29T07:50:39;6.65;;;1.80;;
53775;SDS011;44276;49.534;6.378;2022-07-29T07:53:07;8.60;;;1.90;;
53775;SDS011;44276;49.534;6.378;2022-07-29T07:55:38;3.55;;;1.50;;
53775;SDS011;44276;49.534;6.378;2022-07-29T07:58:28;3.05;;;1.67;;
53775;SDS011;44276;49.534;6.378;2022-07-29T08:00:56;5.28;;;2.58;;
53775;SDS011;44276;49.534;6.378;2022-07-29T08:03:24;10.90;;;2.22;;
53775;SDS011;44276;49.534;6.378;2022-07-29T08:05:54;4.68;;;1.65;;
53775;SDS011;44276;49.534;6.378;2022-07-29T08:08:23;4.38;;;1.90;;
53775;SDS011;44276;49.534;6.378;2022-07-29T08:10:51;4.97;;;1.80;;
53775;SDS011;44276;49.534;6.378;2022-07-29T08:13:20;3.17;;;1.67;;
53775;SDS011;44276;49.534;6.378;2022-07-29T08:15:51;1.98;;;1.27;;
53775;SDS011;44276;49.534;6.378;2022-07-29T08:18:25;3.10;;;1.23;;
53775;SDS011;44276;49.534;6.378;2022-07-29T08:20:55;5.03;;;1.38;;
53775;SDS011;44276;49.534;6.378;2022-07-29T08:23:24;4.03;;;1.70;;
53775;SDS011;44276;49.534;6.378;2022-07-29T08:26:14;6.78;;;1.38;;
53775;SDS011;44276;49.534;6.378;2022-07-29T08:28:43;7.40;;;1.67;;
53775;SDS011;44276;49.534;6.378;2022-07-29T08:31:15;11.13;;;1.70;;
53775;SDS011;44276;49.534;6.378;2022-07-29T08:33:44;5.28;;;1.42;;
53775;SDS011;44276;49.534;6.378;2022-07-29T08:36:14;5.78;;;1.42;;
53775;SDS011;44276;49.534;6.378;2022-07-29T08:38:42;5.57;;;1.27;;
53775;SDS011;44276;49.534;6.378;2022-07-29T08:41:10;3.50;;;1.30;;
53775;SDS011;44276;49.534;6.378;2022-07-29T08:43:39;3.55;;;1.77;;
53775;SDS011;44276;49.534;6.378;2022-07-29T08:46:08;3.85;;;1.48;;
53775;SDS011;44276;49.534;6.378;2022-07-29T08:48:36;8.48;;;1.25;;
53775;SDS011;44276;49.534;6.378;2022-07-29T08:51:06;6.95;;;1.50;;
53775;SDS011;44276;49.534;6.378;2022-07-29T08:53:37;4.03;;;1.30;;
53775;SDS011;44276;49.534;6.378;2022-07-29T08:56:11;3.05;;;1.45;;
53775;SDS011;44276;49.534;6.378;2022-07-29T08:58:40;4.97;;;1.83;;
53775;SDS011;44276;49.534;6.378;2022-07-29T09:01:16;7.13;;;1.90;;
53775;SDS011;44276;49.534;6.378;2022-07-29T09:04:10;4.75;;;1.67;;
53775;SDS011;44276;49.534;6.378;2022-07-29T09:06:41;10.95;;;1.67;;
53775;SDS011;44276;49.534;6.378;2022-07-29T09:09:14;14.43;;;2.97;;
53775;SDS011;44276;49.534;6.378;2022-07-29T09:11:42;11.18;;;3.17;;
53775;SDS011;44276;49.534;6.378;2022-07-29T09:14:11;5.80;;;1.80;;
53775;SDS011;44276;49.534;6.378;2022-07-29T09:16:44;4.07;;;1.73;;
53775;SDS011;44276;49.534;6.378;2022-07-29T09:19:19;3.47;;;1.25;;
53775;SDS011;44276;49.534;6.378;2022-07-29T09:21:57;9.30;;;2.33;;
53775;SDS011;44276;49.534;6.378;2022-07-29T09:24:43;27.67;;;3.78;;
53775;SDS011;44276;49.534;6.378;2022-07-29T09:27:20;10.90;;;2.72;;
53775;SDS011;44276;49.534;6.378;2022-07-29T09:29:55;8.43;;;2.58;;
53775;SDS011;44276;49.534;6.378;2022-07-29T09:32:25;3.75;;;1.75;;
53775;SDS011;44276;49.534;6.378;2022-07-29T09:35:14;8.90;;;2.30;;
53775;SDS011;44276;49.534;6.378;2022-07-29T09:37:48;13.13;;;2.70;;
53775;SDS011;44276;49.534;6.378;2022-07-29T09:40:19;14.35;;;2.72;;
53775;SDS011;44276;49.534;6.378;2022-07-29T09:42:50;23.30;;;3.53;;
53775;SDS011;44276;49.534;6.378;2022-07-29T09:45:28;7.18;;;2.65;;
53775;SDS011;44276;49.534;6.378;2022-07-29T09:47:59;5.07;;;1.70;;
53775;SDS011;44276;49.534;6.378;2022-07-29T09:50:40;11.38;;;2.33;;
53775;SDS011;44276;49.534;6.378;2022-07-29T09:53:10;3.85;;;1.75;;
53775;SDS011;44276;49.534;6.378;2022-07-29T09:55:47;7.75;;;1.95;;
53775;SDS011;44276;49.534;6.378;2022-07-29T09:58:17;6.75;;;1.90;;
53775;SDS011;44276;49.534;6.378;2022-07-29T10:00:47;10.25;;;2.08;;
53775;SDS011;44276;49.534;6.378;2022-07-29T10:03:17;8.40;;;2.30;;
53775;SDS011;44276;49.534;6.378;2022-07-29T10:05:46;9.20;;;2.22;;
53775;SDS011;44276;49.534;6.378;2022-07-29T10:08:34;8.38;;;2.00;;
53775;SDS011;44276;49.534;6.378;2022-07-29T10:11:11;10.15;;;2.33;;
53775;SDS011;44276;49.534;6.378;2022-07-29T10:13:41;8.77;;;1.98;;
53775;SDS011;44276;49.534;6.378;2022-07-29T10:16:11;5.57;;;2.08;;
53775;SDS011;44276;49.534;6.378;2022-07-29T10:18:41;6.57;;;1.60;;
53775;SDS011;44276;49.534;6.378;2022-07-29T10:21:10;6.43;;;1.73;;
53775;SDS011;44276;49.534;6.378;2022-07-29T10:24:00;4.15;;;1.88;;
53775;SDS011;44276;49.534;6.378;2022-07-29T10:26:30;4.35;;;1.50;;
53775;SDS011;44276;49.534;6.378;2022-07-29T10:28:58;8.52;;;2.03;;
53775;SDS011;44276;49.534;6.378;2022-07-29T10:31:29;2.78;;;1.60;;
53775;SDS011;44276;49.534;6.378;2022-07-29T10:34:13;4.30;;;1.83;;
53775;SDS011;44276;49.534;6.378;2022-07-29T10:36:54;2.60;;;1.17;;
53775;SDS011;44276;49.534;6.378;2022-07-29T10:39:39;3.15;;;1.27;;
53775;SDS011;44276;49.534;6.378;2022-07-29T10:42:24;3.65;;;1.30;;
53775;SDS011;44276;49.534;6.378;2022-07-29T10:44:59;2.33;;;1.13;;
53775;SDS011;44276;49.534;6.378;2022-07-29T10:47:31;8.07;;;2.45;;
53775;SDS011;44276;49.534;6.378;2022-07-29T10:50:01;4.03;;;1.40;;
53775;SDS011;44276;49.534;6.378;2022-07-29T10:55:30;6.95;;;1.60;;
53775;SDS011;44276;49.534;6.378;2022-07-29T10:58:13;5.85;;;1.38;;
53775;SDS011;44276;49.534;6.378;2022-07-29T11:00:44;3.78;;;1.02;;
53775;SDS011;44276;49.534;6.378;2022-07-29T11:06:15;3.22;;;1.73;;
53775;SDS011;44276;49.534;6.378;2022-07-29T11:11:45;2.03;;;1.10;;
53775;SDS011;44276;49.534;6.378;2022-07-29T11:14:19;7.90;;;2.20;;
53775;SDS011;44276;49.534;6.378;2022-07-29T11:17:29;26.98;;;2.38;;
53775;SDS011;44276;49.534;6.378;2022-07-29T11:20:30;7.15;;;1.65;;
53775;SDS011;44276;49.534;6.378;2022-07-29T11:23:17;13.25;;;2.08;;
53775;SDS011;44276;49.534;6.378;2022-07-29T11:28:59;3.10;;;1.40;;
53775;SDS011;44276;49.534;6.378;2022-07-29T11:31:37;7.22;;;2.03;;
53775;SDS011;44276;49.534;6.378;2022-07-29T11:34:19;12.97;;;2.10;;
53775;SDS011;44276;49.534;6.378;2022-07-29T11:40:09;4.68;;;1.85;;
53775;SDS011;44276;49.534;6.378;2022-07-29T11:42:47;5.68;;;1.60;;
53775;SDS011;44276;49.534;6.378;2022-07-29T11:45:18;5.55;;;2.05;;
53775;SDS011;44276;49.534;6.378;2022-07-29T11:48:16;10.38;;;1.60;;
53775;SDS011;44276;49.534;6.378;2022-07-29T11:50:57;3.25;;;1.27;;
53775;SDS011;44276;49.534;6.378;2022-07-29T11:53:26;4.88;;;1.55;;
53775;SDS011;44276;49.534;6.378;2022-07-29T11:55:58;3.00;;;1.25;;
53775;SDS011;44276;49.534;6.378;2022-07-29T11:58:29;4.40;;;2.03;;
53775;SDS011;44276;49.534;6.378;2022-07-29T12:00:58;2.50;;;1.20;;
53775;SDS011;44276;49.534;6.378;2022-07-29T12:03:49;3.50;;;1.10;;
53775;SDS011;44276;49.534;6.378;2022-07-29T12:06:32;4.75;;;1.30;;
53775;SDS011;44276;49.534;6.378;2022-07-29T12:09:00;6.13;;;1.30;;
53775;SDS011;44276;49.534;6.378;2022-07-29T12:11:39;4.28;;;1.15;;
53775;SDS011;44276;49.534;6.378;2022-07-29T12:14:24;1.52;;;1.17;;
53775;SDS011;44276;49.534;6.378;2022-07-29T12:16:53;4.85;;;1.40;;
53775;SDS011;44276;49.534;6.378;2022-07-29T12:19:25;6.00;;;1.40;;
53775;SDS011;44276;49.534;6.378;2022-07-29T12:21:56;3.60;;;1.60;;
53775;SDS011;44276;49.534;6.378;2022-07-29T12:24:28;4.57;;;1.25;;
53775;SDS011;44276;49.534;6.378;2022-07-29T12:27:11;2.67;;;1.17;;
53775;SDS011;44276;49.534;6.378;2022-07-29T12:29:55;4.03;;;1.42;;
53775;SDS011;44276;49.534;6.378;2022-07-29T12:32:23;2.25;;;1.10;;
53775;SDS011;44276;49.534;6.378;2022-07-29T12:35:01;4.47;;;1.15;;
53775;SDS011;44276;49.534;6.378;2022-07-29T12:37:32;5.97;;;1.13;;
53775;SDS011;44276;49.534;6.378;2022-07-29T12:40:08;12.65;;;2.08;;
53775;SDS011;44276;49.534;6.378;2022-07-29T12:42:40;2.60;;;1.33;;
53775;SDS011;44276;49.534;6.378;2022-07-29T12:45:08;3.05;;;1.10;;
53775;SDS011;44276;49.534;6.378;2022-07-29T12:47:50;1.90;;;1.10;;
53775;SDS011;44276;49.534;6.378;2022-07-29T12:50:21;3.20;;;1.50;;
53775;SDS011;44276;49.534;6.378;2022-07-29T12:52:51;6.30;;;1.52;;
53775;SDS011;44276;49.534;6.378;2022-07-29T12:58:07;3.20;;;1.08;;
53775;SDS011;44276;49.534;6.378;2022-07-29T13:00:35;4.00;;;1.20;;
53775;SDS011;44276;49.534;6.378;2022-07-29T13:03:04;2.40;;;0.90;;
53775;SDS011;44276;49.534;6.378;2022-07-29T13:05:41;6.38;;;1.13;;
53775;SDS011;44276;49.534;6.378;2022-07-29T13:08:15;3.60;;;1.90;;
53775;SDS011;44276;49.534;6.378;2022-07-29T13:10:48;2.75;;;0.65;;
53775;SDS011;44276;49.534;6.378;2022-07-29T13:13:16;2.92;;;1.00;;
53775;SDS011;44276;49.534;6.378;2022-07-29T13:15:44;6.70;;;1.23;;
53775;SDS011;44276;49.534;6.378;2022-07-29T13:18:26;3.20;;;1.17;;
53775;SDS011;44276;49.534;6.378;2022-07-29T13:20:57;3.60;;;1.10;;
53775;SDS011;44276;49.534;6.378;2022-07-29T13:23:40;4.40;;;1.05;;
53775;SDS011;44276;49.534;6.378;2022-07-29T13:26:09;1.90;;;1.00;;
53775;SDS011;44276;49.534;6.378;2022-07-29T13:28:38;4.50;;;0.98;;
53775;SDS011;44276;49.534;6.378;2022-07-29T13:31:09;6.18;;;1.42;;
53775;SDS011;44276;49.534;6.378;2022-07-29T13:33:38;3.38;;;0.93;;
53775;SDS011;44276;49.534;6.378;2022-07-29T13:36:08;1.30;;;0.77;;
53775;SDS011;44276;49.534;6.378;2022-07-29T13:38:36;3.45;;;1.42;;
53775;SDS011;44276;49.534;6.378;2022-07-29T13:41:04;2.40;;;0.82;;
53775;SDS011;44276;49.534;6.378;2022-07-29T13:43:33;1.80;;;1.05;;
53775;SDS011;44276;49.534;6.378;2022-07-29T13:46:01;1.33;;;0.80;;
53775;SDS011;44276;49.534;6.378;2022-07-29T13:48:29;1.52;;;0.90;;
53775;SDS011;44276;49.534;6.378;2022-07-29T13:50:57;2.92;;;1.25;;
53775;SDS011;44276;49.534;6.378;2022-07-29T13:53:29;4.35;;;1.48;;
53775;SDS011;44276;49.534;6.378;2022-07-29T13:55:57;3.40;;;1.02;;
53775;SDS011;44276;49.534;6.378;2022-07-29T13:58:26;4.22;;;1.70;;
53775;SDS011;44276;49.534;6.378;2022-07-29T14:00:55;3.10;;;1.17;;
53775;SDS011;44276;49.534;6.378;2022-07-29T14:03:23;3.58;;;1.10;;
53775;SDS011;44276;49.534;6.378;2022-07-29T14:05:51;2.38;;;1.00;;
53775;SDS011;44276;49.534;6.378;2022-07-29T14:08:20;5.00;;;1.00;;
53775;SDS011;44276;49.534;6.378;2022-07-29T14:10:50;2.13;;;1.13;;
53775;SDS011;44276;49.534;6.378;2022-07-29T14:13:18;2.45;;;1.08;;
53775;SDS011;44276;49.534;6.378;2022-07-29T14:15:50;2.33;;;1.05;;
53775;SDS011;44276;49.534;6.378;2022-07-29T14:18:19;3.05;;;1.30;;
53775;SDS011;44276;49.534;6.378;2022-07-29T14:20:47;5.63;;;1.58;;
53775;SDS011;44276;49.534;6.378;2022-07-29T14:23:15;3.72;;;2.20;;
53775;SDS011;44276;49.534;6.378;2022-07-29T14:25:45;2.70;;;1.20;;
53775;SDS011;44276;49.534;6.378;2022-07-29T14:28:16;2.35;;;1.42;;
53775;SDS011;44276;49.534;6.378;2022-07-29T14:30:44;5.20;;;1.55;;
53775;SDS011;44276;49.534;6.378;2022-07-29T14:33:12;8.52;;;1.40;;
53775;SDS011;44276;49.534;6.378;2022-07-29T14:35:40;2.40;;;1.30;;
53775;SDS011;44276;49.534;6.378;2022-07-29T14:38:08;2.58;;;1.58;;
53775;SDS011;44276;49.534;6.378;2022-07-29T14:40:37;4.80;;;1.42;;
53775;SDS011;44276;49.534;6.378;2022-07-29T14:43:05;3.08;;;1.45;;
53775;SDS011;44276;49.534;6.378;2022-07-29T14:45:34;4.72;;;1.83;;
53775;SDS011;44276;49.534;6.378;2022-07-29T14:48:03;5.72;;;1.48;;
53775;SDS011;44276;49.534;6.378;2022-07-29T14:50:31;2.92;;;1.85;;
53775;SDS011;44276;49.534;6.378;2022-07-29T14:53:00;6.00;;;1.63;;
53775;SDS011;44276;49.534;6.378;2022-07-29T14:55:28;6.18;;;1.35;;
53775;SDS011;44276;49.534;6.378;2022-07-29T14:57:57;7.03;;;1.40;;
53775;SDS011;44276;49.534;6.378;2022-07-29T15:00:37;5.45;;;1.33;;
53775;SDS011;44276;49.534;6.378;2022-07-29T15:03:05;5.47;;;1.55;;
53775;SDS011;44276;49.534;6.378;2022-07-29T15:05:36;1.52;;;1.17;;
53775;SDS011;44276;49.534;6.378;2022-07-29T15:08:05;1.48;;;0.90;;
53775;SDS011;44276;49.534;6.378;2022-07-29T15:10:34;4.50;;;1.38;;
53775;SDS011;44276;49.534;6.378;2022-07-29T15:13:02;4.05;;;1.30;;
53775;SDS011;44276;49.534;6.378;2022-07-29T15:15:30;5.00;;;1.27;;
53775;SDS011;44276;49.534;6.378;2022-07-29T15:18:01;5.32;;;1.98;;
53775;SDS011;44276;49.534;6.378;2022-07-29T15:20:31;3.88;;;1.63;;
53775;SDS011;44276;49.534;6.378;2022-07-29T15:22:59;2.17;;;1.13;;
53775;SDS011;44276;49.534;6.378;2022-07-29T15:25:27;4.00;;;1.33;;
53775;SDS011;44276;49.534;6.378;2022-07-29T15:27:55;2.13;;;1.20;;
53775;SDS011;44276;49.534;6.378;2022-07-29T15:30:27;3.08;;;1.35;;
53775;SDS011;44276;49.534;6.378;2022-07-29T15:33:00;5.07;;;1.40;;